Time;durP1;ratioP1;P1;durP2;ratioP2;P2;SDS_P1;SDS_P2;PMS_P1;PMS_P2;Temp;Humidity;BMP_temperature;BMP_pressure;BME280_temperature;BME280_humidity;BME280_pressure;Samples;Min_cycle;Max_cycle;Signal;HPM_P1;HPM_P2
2024/04/10 00:00:33;;;;;;;1.30;0.10;;;;;;;10.79;57.49;100875.47;10889524;27;20421;-60
2024/04/10 00:05:35;;;;;;;2.30;0.20;;;;;;;10.75;57.48;100858.00;10876633;26;20018;-62
2024/04/10 00:10:37;;;;;;;2.70;0.20;;;;;;;10.67;58.40;100866.03;10875246;27;20451;-60
2024/04/10 00:15:39;;;;;;;3.30;0.57;;;;;;;10.61;58.46;100867.53;10884694;27;20017;-60
2024/04/10 00:20:47;;;;;;;1.23;0.28;;;;;;;10.58;58.69;100867.84;10884719;27;21532;-59
2024/04/10 00:25:56;;;;;;;4.20;0.52;;;;;;;10.51;58.17;100861.47;10875505;27;20026;-60
2024/04/10 00:31:03;;;;;;;3.33;0.40;;;;;;;10.42;58.93;100865.94;10879592;27;20003;-60
2024/04/10 00:36:05;;;;;;;;;;;;;;;10.35;58.81;100873.00;10874004;27;20454;-59
2024/04/10 00:41:07;;;;;;;2.22;0.20;;;;;;;10.26;59.09;100863.16;10875521;27;19974;-58
2024/04/10 00:46:27;;;;;;;1.25;0.17;;;;;;;10.21;59.51;100871.72;10881085;26;20091;-59
2024/04/10 00:51:29;;;;;;;0.70;0.30;;;;;;;10.20;59.19;100870.03;10887762;26;20007;-58
2024/04/10 00:56:30;;;;;;;2.60;0.30;;;;;;;10.19;59.55;100875.56;10877906;26;20088;-58
2024/04/10 01:01:32;;;;;;;3.45;0.40;;;;;;;10.10;59.46;100888.09;10889779;26;20326;-58
2024/04/10 01:06:34;;;;;;;2.30;0.15;;;;;;;10.09;59.46;100908.78;10894960;26;19997;-58
2024/04/10 01:11:35;;;;;;;2.05;0.17;;;;;;;10.01;60.25;100910.53;10882126;26;20022;-59
2024/04/10 01:16:37;;;;;;;2.97;0.30;;;;;;;10.00;59.92;100925.00;10884566;27;19998;-59
2024/04/10 01:21:39;;;;;;;2.60;0.30;;;;;;;9.98;60.17;100937.72;10877251;27;20018;-61
2024/04/10 01:26:41;;;;;;;4.88;0.60;;;;;;;9.90;60.23;100947.41;10876898;27;20770;-62
2024/04/10 01:31:42;;;;;;;2.38;0.35;;;;;;;9.88;60.15;100944.03;10874469;27;20002;-60
2024/04/10 01:36:44;;;;;;;3.38;0.40;;;;;;;9.84;60.40;100956.09;10877707;27;20006;-59
2024/04/10 01:41:46;;;;;;;1.23;0.22;;;;;;;9.81;60.15;100964.44;10886498;27;20010;-59
2024/04/10 01:46:47;;;;;;;2.45;0.20;;;;;;;9.82;60.25;100965.31;10879204;27;20003;-59
2024/04/10 01:51:49;;;;;;;1.58;0.20;;;;;;;9.78;59.97;100974.69;10882451;26;20022;-60
2024/04/10 01:56:50;;;;;;;3.28;0.20;;;;;;;9.76;60.20;100987.41;10885543;27;20514;-59
2024/04/10 02:01:52;;;;;;;1.55;0.52;;;;;;;9.70;60.03;100984.34;10880275;27;20453;-60
2024/04/10 02:06:53;;;;;;;0.88;0.20;;;;;;;9.62;60.94;100981.59;10883883;27;20001;-59
2024/04/10 02:11:56;;;;;;;2.15;0.38;;;;;;;9.52;61.08;100991.56;10866932;27;20015;-60
2024/04/10 02:16:58;;;;;;;5.68;0.50;;;;;;;9.45;60.97;100993.16;10867461;27;20019;-60
2024/04/10 02:22:00;;;;;;;2.42;0.30;;;;;;;9.41;60.82;101013.25;10878605;27;20006;-60
2024/04/10 02:27:02;;;;;;;5.25;1.23;;;;;;;9.43;61.00;101013.94;10875589;27;20017;-62
2024/04/10 02:32:04;;;;;;;0.63;0.15;;;;;;;9.43;61.04;101028.19;10877145;27;20477;-61
2024/04/10 02:37:06;;;;;;;2.50;0.55;;;;;;;9.50;61.41;101029.28;10878652;27;20006;-60
2024/04/10 02:42:10;;;;;;;1.13;0.20;;;;;;;9.62;60.99;101035.28;10876802;27;20018;-62
2024/04/10 02:47:11;;;;;;;3.35;0.60;;;;;;;9.70;61.16;101037.19;10880104;27;20335;-57
2024/04/10 02:52:13;;;;;;;0.57;0.20;;;;;;;9.80;61.06;101031.75;10902674;26;20006;-58
2024/04/10 02:57:15;;;;;;;1.75;0.30;;;;;;;9.90;60.91;101040.56;10878866;27;20019;-58
2024/04/10 03:02:16;;;;;;;3.97;0.30;;;;;;;9.93;61.18;101051.84;10874482;26;20013;-58
2024/04/10 03:07:19;;;;;;;2.72;0.20;;;;;;;9.99;61.23;101055.75;10877609;27;20613;-58
2024/04/10 03:12:20;;;;;;;3.03;0.30;;;;;;;9.96;60.75;101065.97;10888851;26;20021;-59
2024/04/10 03:17:22;;;;;;;1.08;0.25;;;;;;;10.00;60.92;101078.09;10865919;26;19998;-62
2024/04/10 03:22:24;;;;;;;1.13;0.20;;;;;;;10.06;60.97;101097.09;10873519;26;20158;-63
2024/04/10 03:27:25;;;;;;;2.60;0.40;;;;;;;10.09;60.85;101098.63;10880596;26;20010;-60
2024/04/10 03:32:27;;;;;;;1.25;0.25;;;;;;;10.09;60.75;101110.22;10881302;26;20002;-60
2024/04/10 03:37:29;;;;;;;4.03;0.30;;;;;;;10.11;60.83;101107.38;10877202;27;20046;-62
2024/04/10 03:42:32;;;;;;;2.08;0.90;;;;;;;10.09;61.34;101114.75;10890408;26;20014;-61
2024/04/10 03:47:34;;;;;;;3.58;0.30;;;;;;;10.05;60.90;101111.53;10874444;27;20003;-62
2024/04/10 03:52:36;;;;;;;2.70;0.30;;;;;;;10.04;60.93;101123.28;10875784;27;20022;-60
2024/04/10 03:57:37;;;;;;;2.90;0.40;;;;;;;9.98;60.90;101128.44;10877886;26;20013;-61
2024/04/10 04:02:39;;;;;;;2.80;0.60;;;;;;;9.81;61.62;101132.78;10872131;27;20007;-62
2024/04/10 04:07:41;;;;;;;3.58;0.47;;;;;;;9.78;61.79;101143.84;10860914;27;20017;-62
2024/04/10 04:12:42;;;;;;;3.65;0.30;;;;;;;9.63;61.87;101147.00;10878813;27;20361;-60
2024/04/10 04:17:45;;;;;;;4.03;0.35;;;;;;;9.53;61.75;101167.69;10879526;27;20003;-62
2024/04/10 04:22:47;;;;;;;2.95;0.40;;;;;;;9.50;61.59;101166.16;10879316;27;20015;-61
2024/04/10 04:27:48;;;;;;;2.58;0.75;;;;;;;9.43;62.18;101174.94;10881726;26;20007;-62
2024/04/10 04:32:50;;;;;;;4.22;0.50;;;;;;;9.30;62.28;101181.50;10883849;27;20011;-61
2024/04/10 04:37:57;;;;;;;6.22;0.50;;;;;;;9.22;62.16;101191.25;10885428;27;20006;-62
2024/04/10 04:43:08;;;;;;;4.70;0.52;;;;;;;9.11;62.70;101211.06;10886331;27;20017;-67
2024/04/10 04:48:10;;;;;;;6.20;0.95;;;;;;;9.06;62.07;101221.38;10893508;26;20010;-60
2024/04/10 04:53:13;;;;;;;7.30;0.60;;;;;;;9.02;62.72;101236.91;10882924;27;20011;-60
2024/04/10 04:58:15;;;;;;;4.28;0.70;;;;;;;8.98;62.54;101243.53;10879680;27;20003;-60
2024/04/10 05:08:38;;;;;;;4.70;0.40;;;;;;;8.93;62.74;101268.13;10876261;27;20013;-60
2024/04/10 05:13:39;;;;;;;3.80;0.52;;;;;;;8.89;62.85;101280.13;10884228;27;20026;-60
2024/04/10 05:18:41;;;;;;;5.60;1.38;;;;;;;8.82;63.17;101278.97;10888485;27;20058;-60
2024/04/10 05:23:43;;;;;;;6.35;0.50;;;;;;;8.85;63.24;101289.44;10868837;27;20006;-63
2024/04/10 05:28:45;;;;;;;6.75;0.95;;;;;;;8.93;63.41;101292.25;10856224;27;20057;-67
2024/04/10 05:33:46;;;;;;;3.40;0.70;;;;;;;9.03;63.09;101305.66;10875897;27;20411;-66
2024/04/10 05:38:49;;;;;;;5.50;0.57;;;;;;;9.13;63.16;101302.97;10879964;26;20013;-60
2024/04/10 05:43:51;;;;;;;3.30;0.70;;;;;;;9.31;63.38;101319.16;10880021;27;20011;-61
2024/04/10 05:48:53;;;;;;;3.20;0.40;;;;;;;9.50;62.78;101329.03;10884073;26;20026;-60
2024/04/10 05:53:55;;;;;;;8.00;0.73;;;;;;;9.63;62.71;101332.22;10884425;26;21274;-60
2024/04/10 05:58:56;;;;;;;4.07;0.57;;;;;;;9.71;63.14;101342.25;10881364;27;20386;-64
2024/04/10 06:03:58;;;;;;;4.00;0.50;;;;;;;9.91;62.51;101348.38;10883963;26;20017;-58
2024/04/10 06:09:00;;;;;;;4.75;0.70;;;;;;;10.19;62.37;101351.09;10887068;27;20014;-57
2024/04/10 06:14:02;;;;;;;19.67;1.92;;;;;;;10.46;61.97;101344.91;10882227;27;20012;-58
2024/04/10 06:19:04;;;;;;;4.07;0.70;;;;;;;10.66;61.48;101353.69;10890627;27;20997;-55
2024/04/10 06:24:07;;;;;;;4.18;0.50;;;;;;;10.84;61.54;101353.72;10884354;27;20046;-58
2024/04/10 06:29:09;;;;;;;4.22;0.60;;;;;;;10.95;61.12;101352.66;10876796;27;20482;-59
2024/04/10 06:34:10;;;;;;;2.40;0.55;;;;;;;11.01;60.67;101355.56;10885463;27;20015;-57
2024/04/10 06:39:13;;;;;;;4.50;1.08;;;;;;;11.03;60.96;101350.88;10877322;27;20021;-58
2024/04/10 06:44:14;;;;;;;7.25;0.57;;;;;;;11.02;61.04;101351.91;10887091;27;20165;-59
2024/04/10 06:49:16;;;;;;;5.60;0.80;;;;;;;11.10;60.26;101362.72;10883755;26;20025;-58
2024/04/10 06:54:20;;;;;;;4.45;0.50;;;;;;;11.18;60.21;101359.25;10881609;26;20017;-59
2024/04/10 07:00:56;;;;;;;3.95;0.55;;;;;;;11.33;59.90;101373.00;11059720;26;20714;-59
2024/04/10 07:06:15;;;;;;;5.93;0.82;;;;;;;11.39;59.18;101379.59;11041673;26;20013;-61
2024/04/10 07:11:21;;;;;;;3.38;0.77;;;;;;;11.54;59.18;101378.06;11037555;26;20009;-61
2024/04/10 07:16:26;;;;;;;9.23;0.82;;;;;;;11.68;59.02;101382.03;11035557;26;20037;-60
2024/04/10 07:21:29;;;;;;;6.15;1.50;;;;;;;11.78;59.01;101395.38;11034098;26;20011;-60
2024/04/10 07:26:32;;;;;;;9.18;0.88;;;;;;;11.92;58.25;101397.53;11040224;26;20001;-61
2024/04/10 07:31:36;;;;;;;3.03;0.73;;;;;;;11.97;57.96;101400.59;11032421;26;20001;-63
2024/04/10 07:36:38;;;;;;;5.85;0.98;;;;;;;11.94;58.27;101410.84;11046074;26;20063;-62
2024/04/10 07:41:43;;;;;;;5.20;0.93;;;;;;;12.12;57.58;101419.72;11054204;26;20001;-62
2024/04/10 07:46:45;;;;;;;5.82;0.80;;;;;;;12.43;56.88;101424.59;11046779;26;20357;-63
2024/04/10 07:51:47;;;;;;;3.55;0.80;;;;;;;12.64;56.51;101438.50;11046950;26;20016;-59
2024/04/10 07:56:48;;;;;;;3.80;0.80;;;;;;;12.87;56.09;101438.78;11041793;26;20231;-59
2024/04/10 08:01:50;;;;;;;4.93;0.60;;;;;;;13.13;55.64;101429.72;11035040;26;20033;-59
2024/04/10 08:06:52;;;;;;;4.57;0.93;;;;;;;13.38;55.25;101441.41;11046648;26;20456;-58
2024/04/10 08:11:54;;;;;;;5.47;0.82;;;;;;;13.48;54.54;101444.78;11015953;26;20009;-60
2024/04/10 08:16:55;;;;;;;4.22;0.80;;;;;;;13.22;54.88;101453.00;11014851;26;20370;-59
2024/04/10 08:21:58;;;;;;;10.43;0.80;;;;;;;13.41;54.41;101443.78;11005691;26;20071;-60
2024/04/10 08:27:02;;;;;;;5.85;1.10;;;;;;;13.68;53.74;101450.72;11005903;26;20009;-60
2024/04/10 08:32:04;;;;;;;2.00;0.80;;;;;;;13.84;53.02;101459.81;11007312;26;20011;-60
2024/04/10 08:37:06;;;;;;;5.20;0.90;;;;;;;13.81;53.03;101474.53;11004938;26;20005;-60
2024/04/10 08:42:12;;;;;;;5.57;1.27;;;;;;;13.67;53.03;101484.16;10997032;26;20133;-60
2024/04/10 08:47:15;;;;;;;5.45;1.00;;;;;;;13.65;52.52;101488.88;11007484;26;20014;-61
2024/04/10 08:52:18;;;;;;;3.08;0.70;;;;;;;13.95;51.73;101494.63;11002721;26;19998;-61
2024/04/10 08:57:20;;;;;;;7.78;1.23;;;;;;;14.05;51.54;101502.56;11000327;26;20013;-61
2024/04/10 09:02:22;;;;;;;9.05;1.42;;;;;;;14.50;50.72;101509.25;11002245;26;20001;-60
2024/04/10 09:07:24;;;;;;;6.45;1.27;;;;;;;14.65;49.91;101504.84;10998852;26;20100;-61
2024/04/10 09:12:25;;;;;;;4.03;1.08;;;;;;;15.12;49.89;101502.25;11001702;26;20743;-60
2024/04/10 09:17:27;;;;;;;2.05;0.85;;;;;;;15.69;48.46;101498.31;11002141;26;20001;-61
2024/04/10 09:22:28;;;;;;;5.82;0.85;;;;;;;16.48;47.14;101506.09;11012190;26;20488;-61
2024/04/10 09:27:30;;;;;;;5.70;1.15;;;;;;;16.92;46.33;101507.97;11011690;26;20002;-61
2024/04/10 09:32:36;;;;;;;5.18;0.80;;;;;;;16.93;45.79;101515.09;11006987;26;20027;-61
2024/04/10 09:37:38;;;;;;;6.00;0.80;;;;;;;16.67;45.86;101516.41;11005152;26;20015;-61
2024/04/10 09:42:46;;;;;;;5.00;1.05;;;;;;;16.94;45.10;101516.78;11009289;26;20017;-62
2024/04/10 09:47:50;;;;;;;3.25;0.70;;;;;;;17.06;44.75;101520.69;11010316;26;20410;-61
2024/04/10 09:52:54;;;;;;;5.72;0.70;;;;;;;17.08;44.53;101526.81;11012565;26;20006;-61
2024/04/10 09:57:56;;;;;;;5.13;1.23;;;;;;;17.29;44.19;101523.28;11003646;26;20461;-61
2024/04/10 10:03:07;;;;;;;5.57;0.63;;;;;;;17.77;43.27;101525.44;11004350;26;20707;-62
2024/04/10 10:08:14;;;;;;;3.55;0.70;;;;;;;18.03;42.68;101523.00;11004744;26;20025;-61
2024/04/10 10:13:29;;;;;;;6.53;0.60;;;;;;;18.46;42.34;101526.66;11008703;26;20001;-62
2024/04/10 10:18:30;;;;;;;7.15;0.90;;;;;;;18.75;41.13;101518.25;10992934;26;20490;-62
2024/04/10 10:23:38;;;;;;;4.82;0.60;;;;;;;19.60;40.56;101507.88;10999334;26;20056;-62
2024/04/10 10:28:39;;;;;;;5.25;0.50;;;;;;;22.04;36.55;101506.69;10995237;26;20013;-62
2024/04/10 10:33:42;;;;;;;4.82;0.50;;;;;;;23.23;33.25;101512.00;11001839;26;20507;-61
2024/04/10 10:38:44;;;;;;;1.63;0.30;;;;;;;21.91;34.81;101535.88;11003795;26;20883;-68
2024/04/10 10:43:45;;;;;;;2.85;0.50;;;;;;;20.89;36.09;101529.47;11015993;26;20000;-63
2024/04/10 10:48:47;;;;;;;5.47;1.05;;;;;;;20.68;35.82;101525.13;11027221;26;20023;-61
2024/04/10 10:53:50;;;;;;;5.07;1.23;;;;;;;20.54;35.63;101536.06;11046789;26;20364;-63
2024/04/10 10:58:52;;;;;;;1.05;0.43;;;;;;;21.04;34.35;101530.03;11013495;26;20021;-60
2024/04/10 11:03:54;;;;;;;3.35;0.22;;;;;;;19.71;34.78;101533.75;11008654;26;20021;-61
2024/04/10 11:09:04;;;;;;;7.18;0.35;;;;;;;18.99;35.21;101537.88;11011610;26;20021;-58
2024/04/10 11:14:10;;;;;;;3.67;0.28;;;;;;;19.08;34.37;101533.13;11000150;26;20001;-60
2024/04/10 11:19:12;;;;;;;0.93;0.25;;;;;;;19.56;33.53;101527.59;11010105;26;20009;-59
2024/04/10 11:24:14;;;;;;;2.50;0.30;;;;;;;20.60;32.35;101515.28;11005354;26;20452;-60
2024/04/10 11:29:15;;;;;;;2.45;0.30;;;;;;;22.71;29.71;101507.75;11003929;26;20001;-60
2024/04/10 11:34:17;;;;;;;1.75;0.30;;;;;;;30.20;21.38;101491.00;11008390;26;20430;-61
2024/04/10 11:39:19;;;;;;;2.38;0.45;;;;;;;33.96;18.41;101503.09;11005715;26;20010;-61
2024/04/10 11:44:25;;;;;;;0.77;0.20;;;;;;;38.33;15.76;101510.00;11005420;26;20020;-60
2024/04/10 11:49:27;;;;;;;1.50;0.20;;;;;;;40.51;14.32;101522.31;11015348;26;20009;-64
2024/04/10 11:54:28;;;;;;;0.95;0.20;;;;;;;39.57;14.55;101515.38;11002971;26;20005;-64
2024/04/10 11:59:31;;;;;;;2.72;0.30;;;;;;;35.72;17.03;101514.00;11006035;26;20506;-64
2024/04/10 12:04:33;;;;;;;2.03;0.20;;;;;;;39.27;13.65;101509.00;10999571;26;20025;-64
2024/04/10 12:09:37;;;;;;;1.13;0.20;;;;;;;40.31;13.01;101512.81;11010247;26;20124;-64
2024/04/10 12:14:45;;;;;;;1.98;0.20;;;;;;;41.52;12.42;101514.97;11000721;26;20100;-65
2024/04/10 12:19:47;;;;;;;0.70;0.20;;;;;;;40.36;11.90;101509.72;11000856;26;20024;-64
2024/04/10 12:24:49;;;;;;;2.65;0.40;;;;;;;35.61;15.09;101509.75;11004462;26;20015;-65
2024/04/10 12:29:50;;;;;;;3.35;0.20;;;;;;;31.92;16.21;101521.31;11002454;26;20349;-63
2024/04/10 12:34:58;;;;;;;1.92;0.25;;;;;;;29.22;18.14;101522.53;11013258;26;20083;-63
2024/04/10 12:40:01;;;;;;;1.35;0.20;;;;;;;27.23;19.79;101523.53;11009682;26;20037;-63
2024/04/10 12:45:03;;;;;;;2.70;0.20;;;;;;;28.78;18.12;101518.19;11000530;26;20020;-63
2024/04/10 12:50:07;;;;;;;3.08;0.30;;;;;;;26.57;20.01;101529.00;11004639;26;20437;-63
2024/04/10 12:55:09;;;;;;;2.65;0.30;;;;;;;24.42;21.66;101530.44;11002611;26;20008;-62
2024/04/10 13:00:12;;;;;;;2.42;0.25;;;;;;;23.06;23.15;101534.56;11010963;26;20001;-60
2024/04/10 13:05:14;;;;;;;1.23;0.10;;;;;;;21.94;24.03;101549.13;11006026;26;20016;-60
2024/04/10 13:10:16;;;;;;;0.47;0.13;;;;;;;21.42;24.60;101537.44;11007440;26;20005;-61
2024/04/10 13:15:19;;;;;;;2.65;0.20;;;;;;;21.25;25.05;101545.31;11002573;26;20013;-60
2024/04/10 13:20:21;;;;;;;2.53;0.20;;;;;;;20.46;26.06;101546.34;11002602;26;20015;-61
2024/04/10 13:25:23;;;;;;;2.47;0.28;;;;;;;20.07;26.75;101554.34;11003481;26;20016;-60
2024/04/10 13:30:24;;;;;;;1.50;0.30;;;;;;;19.53;27.19;101560.72;11008603;26;20752;-60
2024/04/10 13:35:26;;;;;;;5.78;0.32;;;;;;;18.99;28.48;101570.59;11005669;26;20021;-60
2024/04/10 13:40:27;;;;;;;0.90;0.20;;;;;;;18.68;28.39;101573.72;11008733;26;20107;-60
2024/04/10 13:45:29;;;;;;;3.20;0.55;;;;;;;18.69;28.67;101584.44;11010888;26;20016;-60
2024/04/10 13:50:35;;;;;;;1.33;0.75;;;;;;;18.59;29.12;101582.06;11005252;26;20009;-60
2024/04/10 13:55:37;;;;;;;1.42;0.30;;;;;;;18.49;29.74;101583.47;11005872;26;20432;-60
2024/04/10 14:00:39;;;;;;;2.90;0.40;;;;;;;18.04;30.67;101589.16;11002838;26;20002;-60
2024/04/10 14:05:41;;;;;;;6.10;0.32;;;;;;;18.28;30.52;101582.44;11000305;26;20005;-60
2024/04/10 14:10:42;;;;;;;3.22;0.50;;;;;;;18.37;29.99;101578.53;11002265;26;20021;-60
2024/04/10 14:15:54;;;;;;;1.25;0.20;;;;;;;18.15;30.48;101585.91;11003585;26;20010;-57
2024/04/10 14:21:12;;;;;;;5.57;0.43;;;;;;;18.16;30.50;101587.56;10997926;26;20024;-59
2024/04/10 14:26:18;;;;;;;2.45;0.50;;;;;;;18.19;30.73;101594.53;11000574;26;20005;-61
2024/04/10 14:31:19;;;;;;;1.52;0.20;;;;;;;18.72;30.08;101591.34;11009345;26;20111;-60
2024/04/10 14:36:21;;;;;;;5.05;0.50;;;;;;;19.00;30.41;101599.53;11011748;26;20005;-57
2024/04/10 14:41:22;;;;;;;0.75;0.20;;;;;;;18.71;30.58;101606.88;11002771;26;20352;-60
2024/04/10 14:46:25;;;;;;;2.83;0.30;;;;;;;18.74;31.09;101606.47;11004693;26;20040;-59
2024/04/10 14:51:27;;;;;;;4.38;0.20;;;;;;;18.53;31.08;101603.81;11009237;26;20348;-58
2024/04/10 14:56:28;;;;;;;4.35;0.30;;;;;;;18.44;31.16;101605.81;11007417;26;20001;-58
2024/04/10 15:01:30;;;;;;;1.50;0.25;;;;;;;18.62;31.34;101608.03;11012001;26;20494;-58
2024/04/10 15:06:31;;;;;;;1.45;0.10;;;;;;;18.24;31.63;101606.47;10999532;26;20008;-60
2024/04/10 15:11:33;;;;;;;2.28;0.20;;;;;;;18.17;31.46;101610.22;11012244;26;20327;-58
2024/04/10 15:16:35;;;;;;;1.27;0.20;;;;;;;18.06;31.44;101613.44;11008173;26;20003;-58
2024/04/10 15:21:37;;;;;;;1.85;0.25;;;;;;;18.17;30.97;101608.31;11012778;26;20122;-59
2024/04/10 15:26:40;;;;;;;2.03;0.20;;;;;;;18.17;31.04;101615.66;11001574;26;20032;-57
2024/04/10 15:31:42;;;;;;;2.83;0.22;;;;;;;18.26;31.33;101610.91;11005244;26;20008;-61
2024/04/10 15:36:43;;;;;;;1.02;0.15;;;;;;;18.46;30.86;101611.06;11010453;26;20013;-61
2024/04/10 15:41:46;;;;;;;1.83;0.30;;;;;;;18.67;30.79;101611.03;11016779;26;20080;-58
2024/04/10 15:46:48;;;;;;;0.80;0.40;;;;;;;18.46;31.32;101609.19;11005179;26;20001;-59
2024/04/10 15:51:49;;;;;;;1.88;0.30;;;;;;;18.45;31.50;101609.41;11013101;26;20134;-59
2024/04/10 15:56:52;;;;;;;2.28;0.20;;;;;;;18.87;31.45;101608.47;11005605;26;20005;-59
2024/04/10 16:01:53;;;;;;;3.65;0.30;;;;;;;18.94;30.96;101617.53;11006600;26;20049;-60
2024/04/10 16:06:55;;;;;;;2.35;0.30;;;;;;;19.15;31.22;101613.03;11005765;26;20025;-60
2024/04/10 16:11:56;;;;;;;6.22;0.40;;;;;;;19.42;30.93;101603.91;11010661;26;20024;-59
2024/04/10 16:16:58;;;;;;;2.20;0.40;;;;;;;20.19;29.77;101604.56;11008498;26;20009;-57
2024/04/10 16:22:03;;;;;;;1.90;0.30;;;;;;;21.33;28.89;101605.25;11009725;26;20006;-60
2024/04/10 16:27:04;;;;;;;2.35;0.43;;;;;;;21.91;28.23;101596.09;11015473;26;20900;-59
2024/04/10 16:32:06;;;;;;;4.90;0.40;;;;;;;22.41;28.12;101597.25;11000702;26;20006;-63
2024/04/10 16:37:07;;;;;;;3.35;0.30;;;;;;;22.95;27.61;101596.50;11009404;26;20005;-63
2024/04/10 16:42:09;;;;;;;1.42;0.25;;;;;;;22.15;27.65;101605.41;11007781;26;20013;-63
2024/04/10 16:47:11;;;;;;;2.75;0.30;;;;;;;21.76;28.17;101615.59;11006504;26;20057;-63
2024/04/10 16:52:13;;;;;;;3.88;0.20;;;;;;;21.46;28.41;101618.03;11009590;26;20530;-62
2024/04/10 16:57:14;;;;;;;2.72;0.50;;;;;;;21.02;28.83;101627.00;11010303;26;20016;-61
2024/04/10 17:02:16;;;;;;;1.75;0.35;;;;;;;20.46;29.11;101641.94;11008013;26;20012;-62
2024/04/10 17:07:18;;;;;;;3.03;0.20;;;;;;;19.65;29.91;101638.22;11002851;26;20416;-61
2024/04/10 17:12:20;;;;;;;2.30;0.25;;;;;;;18.82;31.07;101646.38;10903600;26;20083;-66
2024/04/10 17:17:23;;;;;;;1.83;0.25;;;;;;;18.33;31.69;101648.03;10972225;26;20582;-66
2024/04/10 17:22:25;;;;;;;1.08;0.20;;;;;;;18.27;31.62;101653.44;10979567;26;20091;-66
2024/04/10 17:27:27;;;;;;;2.33;0.30;;;;;;;18.08;31.95;101653.03;10987096;26;20012;-66
2024/04/10 17:32:33;;;;;;;1.10;0.28;;;;;;;17.94;31.76;101662.91;10992001;26;20012;-66
2024/04/10 17:37:35;;;;;;;1.60;0.30;;;;;;;17.58;32.36;101671.06;10961124;26;20037;-66
2024/04/10 17:42:36;;;;;;;2.63;0.30;;;;;;;17.38;32.69;101673.53;10969581;26;20435;-64
2024/04/10 17:47:38;;;;;;;6.40;0.57;;;;;;;17.22;33.24;101672.66;10979160;26;20017;-63
2024/04/10 17:52:40;;;;;;;2.28;0.38;;;;;;;17.04;34.11;101678.47;10997516;26;20059;-61
2024/04/10 17:57:43;;;;;;;3.78;0.60;;;;;;;16.83;34.98;101681.06;10927995;26;23440;-62
2024/04/10 18:02:44;;;;;;;4.70;0.70;;;;;;;16.61;35.56;101685.47;10930670;26;20480;-64
2024/04/10 18:07:50;;;;;;;6.00;1.00;;;;;;;16.40;35.97;101689.69;10940427;26;20025;-64
2024/04/10 18:12:52;;;;;;;7.20;0.73;;;;;;;16.14;37.15;101691.94;10888343;26;20135;-61
2024/04/10 18:17:53;;;;;;;4.15;0.93;;;;;;;15.92;37.38;101697.16;10961158;26;20006;-59
2024/04/10 18:22:55;;;;;;;2.67;0.70;;;;;;;15.62;38.56;101698.78;10971834;26;20005;-59
2024/04/10 18:27:56;;;;;;;4.30;1.20;;;;;;;15.31;38.74;101707.72;10968294;26;20488;-59
2024/04/10 18:32:58;;;;;;;1.75;0.52;;;;;;;14.99;39.86;101711.34;10929037;26;20017;-62
2024/04/10 18:38:00;;;;;;;2.25;0.73;;;;;;;14.71;40.57;101713.53;10960112;26;20353;-61
2024/04/10 18:43:01;;;;;;;7.20;2.35;;;;;;;14.47;41.24;101728.72;10954886;26;20124;-63
2024/04/10 18:48:03;;;;;;;11.77;4.80;;;;;;;14.20;42.08;101727.19;10966282;26;20016;-59
2024/04/10 18:53:05;;;;;;;6.25;3.00;;;;;;;13.94;42.80;101744.34;10966494;26;20009;-62
2024/04/10 18:58:07;;;;;;;13.05;3.75;;;;;;;13.79;43.36;101754.09;10955676;26;19998;-69
2024/04/10 19:03:08;;;;;;;5.70;3.10;;;;;;;13.62;43.84;101758.56;10961082;26;19997;-61
2024/04/10 19:08:10;;;;;;;4.93;2.90;;;;;;;13.46;44.54;101770.13;10953958;26;20014;-69
2024/04/10 19:13:11;;;;;;;6.68;2.40;;;;;;;13.27;45.22;101772.00;10865210;26;20012;-67
2024/04/10 19:18:15;;;;;;;3.15;1.75;;;;;;;13.07;45.99;101789.38;10914546;26;20020;-71
2024/04/10 19:23:17;;;;;;;4.97;1.33;;;;;;;12.83;46.62;101787.34;10922827;26;20110;-70
2024/04/10 19:28:24;;;;;;;6.05;1.02;;;;;;;12.56;47.39;101790.97;10866412;26;20119;-69
2024/04/10 19:33:26;;;;;;;3.17;1.17;;;;;;;12.38;47.54;101801.75;10848178;26;20052;-68
2024/04/10 19:38:28;;;;;;;7.22;1.95;;;;;;;12.28;47.84;101801.78;10840240;26;20275;-69
2024/04/10 19:43:30;;;;;;;4.60;1.00;;;;;;;12.16;48.06;101811.09;10847625;26;20271;-64
2024/04/10 19:48:31;;;;;;;4.35;1.27;;;;;;;12.00;48.60;101811.75;10863061;26;23040;-69
2024/04/10 19:53:34;;;;;;;7.18;2.15;;;;;;;11.85;49.13;101804.13;10856088;26;20020;-68
2024/04/10 19:58:36;;;;;;;2.15;1.17;;;;;;;11.80;49.31;101810.97;10844521;26;20009;-64
2024/04/10 20:03:39;;;;;;;2.60;1.08;;;;;;;11.77;49.42;101805.84;10865666;26;20023;-62
2024/04/10 20:08:43;;;;;;;2.22;1.30;;;;;;;11.67;49.54;101822.03;10826590;26;20014;-62
2024/04/10 20:13:44;;;;;;;4.38;1.58;;;;;;;11.56;50.43;101820.41;10830643;26;20445;-62
2024/04/10 20:18:48;;;;;;;6.40;1.23;;;;;;;11.55;50.53;101812.44;10835014;26;20052;-62
2024/04/10 20:23:51;;;;;;;4.35;1.80;;;;;;;11.47;50.25;101832.91;10828558;26;20027;-62
2024/04/10 20:28:53;;;;;;;7.45;1.30;;;;;;;11.25;50.79;101823.28;10841557;26;20017;-61
2024/04/10 20:33:55;;;;;;;3.80;0.80;;;;;;;11.22;51.32;101810.13;10897299;26;20000;-62
2024/04/10 20:38:59;;;;;;;2.95;1.40;;;;;;;11.11;51.22;101815.66;10918680;26;20002;-62
2024/04/10 20:44:01;;;;;;;3.63;1.00;;;;;;;11.00;51.69;101823.88;11019701;26;20020;-62
2024/04/10 20:49:03;;;;;;;9.23;1.40;;;;;;;10.96;51.77;101823.34;11010606;26;20103;-62
2024/04/10 20:54:06;;;;;;;8.73;2.80;;;;;;;10.84;52.12;101825.31;11004783;26;20009;-61
2024/04/10 20:59:08;;;;;;;2.53;1.33;;;;;;;10.52;52.95;101831.81;10982305;26;20041;-62
2024/04/10 21:04:10;;;;;;;4.15;1.20;;;;;;;10.50;53.66;101832.91;11001725;26;20375;-62
2024/04/10 22:13:21;;;;;;;3.63;1.23;;;;;;;9.41;55.94;101859.41;11008108;26;20378;-63
2024/04/10 22:24:00;;;;;;;4.88;0.80;;;;;;;9.08;56.94;101873.84;11009635;26;20000;-63
2024/04/10 22:29:02;;;;;;;1.50;0.73;;;;;;;8.84;57.98;101885.66;11007324;26;20013;-63
2024/04/10 22:34:04;;;;;;;2.28;0.80;;;;;;;8.89;57.67;101877.25;11001176;26;20017;-63
2024/04/10 22:39:08;;;;;;;2.25;0.85;;;;;;;8.99;57.04;101874.66;11017637;26;20341;-63
2024/04/10 22:44:13;;;;;;;2.47;1.00;;;;;;;8.90;57.20;101878.91;11010989;26;20018;-64
2024/04/10 22:49:14;;;;;;;4.95;1.08;;;;;;;8.84;57.21;101882.97;11004793;26;20020;-63
2024/04/10 22:54:16;;;;;;;2.35;0.70;;;;;;;8.77;57.32;101879.09;10997345;26;20593;-64
2024/04/10 22:59:18;;;;;;;1.52;0.85;;;;;;;8.76;57.07;101871.19;11002734;26;20020;-63
2024/04/10 23:04:19;;;;;;;3.20;0.80;;;;;;;8.68;57.47;101880.69;11007039;26;20083;-63
2024/04/10 23:09:21;;;;;;;2.22;0.63;;;;;;;8.57;57.32;101877.19;10996643;26;20016;-63
2024/04/10 23:14:24;;;;;;;4.03;1.05;;;;;;;8.55;57.40;101888.06;11005503;26;20055;-62
2024/04/10 23:19:28;;;;;;;1.85;0.50;;;;;;;8.47;57.71;101882.44;10996133;26;20353;-63
2024/04/10 23:24:33;;;;;;;3.38;0.70;;;;;;;8.45;57.59;101895.09;11008894;26;20021;-64
2024/04/10 23:29:35;;;;;;;1.40;0.88;;;;;;;8.43;57.42;101881.00;11000509;26;20059;-63
2024/04/10 23:34:39;;;;;;;4.82;1.02;;;;;;;8.36;57.46;101880.59;11003608;26;20091;-62
2024/04/10 23:39:41;;;;;;;3.40;0.60;;;;;;;8.28;57.22;101883.06;11003794;26;20005;-63
2024/04/10 23:44:44;;;;;;;1.80;0.40;;;;;;;8.22;57.46;101889.75;11017152;26;20016;-64
2024/04/10 23:49:47;;;;;;;1.33;0.52;;;;;;;8.18;57.58;101887.44;11008779;26;20082;-63
2024/04/10 23:54:49;;;;;;;2.28;0.68;;;;;;;8.16;57.58;101892.09;11004518;26;20014;-63
2024/04/10 23:59:51;;;;;;;1.42;0.68;;;;;;;8.05;57.95;101892.91;11001239;26;20456;-63
